sensor_id;sensor_type;location;lat;lon;timestamp;P1;durP1;ratioP1;P2;durP2;ratioP2
43678;SDS011;29279;50.858;4.392;2023-10-19T00:00:46;5.05;;;1.10;;
43678;SDS011;29279;50.858;4.392;2023-10-19T00:03:18;7.97;;;0.90;;
43678;SDS011;29279;50.858;4.392;2023-10-19T00:05:45;4.90;;;0.98;;
43678;SDS011;29279;50.858;4.392;2023-10-19T00:08:12;4.35;;;0.90;;
43678;SDS011;29279;50.858;4.392;2023-10-19T00:10:38;2.88;;;0.75;;
43678;SDS011;29279;50.858;4.392;2023-10-19T00:13:07;5.28;;;0.90;;
43678;SDS011;29279;50.858;4.392;2023-10-19T00:15:34;8.10;;;0.90;;
43678;SDS011;29279;50.858;4.392;2023-10-19T00:18:05;2.10;;;0.88;;
43678;SDS011;29279;50.858;4.392;2023-10-19T00:20:52;3.30;;;0.88;;
43678;SDS011;29279;50.858;4.392;2023-10-19T00:23:29;3.75;;;0.77;;
43678;SDS011;29279;50.858;4.392;2023-10-19T00:26:00;7.85;;;1.17;;
43678;SDS011;29279;50.858;4.392;2023-10-19T00:28:42;3.40;;;1.17;;
43678;SDS011;29279;50.858;4.392;2023-10-19T00:31:10;10.48;;;2.08;;
43678;SDS011;29279;50.858;4.392;2023-10-19T00:33:37;8.43;;;2.72;;
43678;SDS011;29279;50.858;4.392;2023-10-19T00:36:09;9.27;;;3.00;;
43678;SDS011;29279;50.858;4.392;2023-10-19T00:38:38;9.40;;;4.00;;
43678;SDS011;29279;50.858;4.392;2023-10-19T00:41:09;14.82;;;4.05;;
43678;SDS011;29279;50.858;4.392;2023-10-19T00:43:35;12.40;;;3.60;;
43678;SDS011;29279;50.858;4.392;2023-10-19T00:46:20;6.50;;;3.15;;
43678;SDS011;29279;50.858;4.392;2023-10-19T00:48:55;10.82;;;3.30;;
43678;SDS011;29279;50.858;4.392;2023-10-19T00:51:26;9.93;;;3.58;;
43678;SDS011;29279;50.858;4.392;2023-10-19T00:54:04;6.93;;;2.90;;
43678;SDS011;29279;50.858;4.392;2023-10-19T00:57:00;9.35;;;3.65;;
43678;SDS011;29279;50.858;4.392;2023-10-19T00:59:35;6.50;;;3.20;;
43678;SDS011;29279;50.858;4.392;2023-10-19T01:02:22;8.38;;;3.08;;
43678;SDS011;29279;50.858;4.392;2023-10-19T01:04:51;5.50;;;2.42;;
43678;SDS011;29279;50.858;4.392;2023-10-19T01:07:24;10.20;;;2.83;;
43678;SDS011;29279;50.858;4.392;2023-10-19T01:09:55;7.18;;;3.10;;
43678;SDS011;29279;50.858;4.392;2023-10-19T01:12:24;8.13;;;2.70;;
43678;SDS011;29279;50.858;4.392;2023-10-19T01:17:47;12.35;;;3.63;;
43678;SDS011;29279;50.858;4.392;2023-10-19T01:20:22;14.15;;;3.05;;
43678;SDS011;29279;50.858;4.392;2023-10-19T01:23:01;13.88;;;3.50;;
43678;SDS011;29279;50.858;4.392;2023-10-19T01:25:31;6.57;;;3.03;;
43678;SDS011;29279;50.858;4.392;2023-10-19T01:28:23;14.93;;;2.90;;
43678;SDS011;29279;50.858;4.392;2023-10-19T01:30:54;10.27;;;2.40;;
43678;SDS011;29279;50.858;4.392;2023-10-19T01:33:20;9.88;;;2.28;;
43678;SDS011;29279;50.858;4.392;2023-10-19T01:35:48;9.40;;;2.38;;
43678;SDS011;29279;50.858;4.392;2023-10-19T01:38:32;12.25;;;2.25;;
43678;SDS011;29279;50.858;4.392;2023-10-19T01:40:58;6.95;;;2.03;;
43678;SDS011;29279;50.858;4.392;2023-10-19T01:43:32;9.13;;;2.00;;
43678;SDS011;29279;50.858;4.392;2023-10-19T01:45:59;7.10;;;1.60;;
43678;SDS011;29279;50.858;4.392;2023-10-19T01:48:41;9.05;;;2.33;;
43678;SDS011;29279;50.858;4.392;2023-10-19T01:51:09;10.32;;;2.00;;
43678;SDS011;29279;50.858;4.392;2023-10-19T01:53:39;11.05;;;1.58;;
43678;SDS011;29279;50.858;4.392;2023-10-19T01:56:09;11.48;;;1.77;;
43678;SDS011;29279;50.858;4.392;2023-10-19T01:58:36;9.60;;;1.80;;
43678;SDS011;29279;50.858;4.392;2023-10-19T02:01:03;7.72;;;1.08;;
43678;SDS011;29279;50.858;4.392;2023-10-19T02:03:52;11.20;;;1.65;;
43678;SDS011;29279;50.858;4.392;2023-10-19T02:06:20;12.82;;;2.17;;
43678;SDS011;29279;50.858;4.392;2023-10-19T02:08:52;7.65;;;1.88;;
43678;SDS011;29279;50.858;4.392;2023-10-19T02:11:25;11.05;;;1.75;;
43678;SDS011;29279;50.858;4.392;2023-10-19T02:13:52;7.43;;;1.40;;
43678;SDS011;29279;50.858;4.392;2023-10-19T02:16:21;8.43;;;1.60;;
43678;SDS011;29279;50.858;4.392;2023-10-19T02:18:48;11.13;;;2.10;;
43678;SDS011;29279;50.858;4.392;2023-10-19T02:21:15;13.93;;;2.28;;
43678;SDS011;29279;50.858;4.392;2023-10-19T02:23:47;9.30;;;2.27;;
43678;SDS011;29279;50.858;4.392;2023-10-19T02:26:15;17.70;;;2.38;;
43678;SDS011;29279;50.858;4.392;2023-10-19T02:28:45;6.72;;;1.95;;
43678;SDS011;29279;50.858;4.392;2023-10-19T02:31:12;7.97;;;1.48;;
43678;SDS011;29279;50.858;4.392;2023-10-19T02:33:50;14.10;;;1.92;;
43678;SDS011;29279;50.858;4.392;2023-10-19T02:36:17;14.10;;;2.17;;
43678;SDS011;29279;50.858;4.392;2023-10-19T02:38:45;10.13;;;1.63;;
43678;SDS011;29279;50.858;4.392;2023-10-19T02:41:16;5.97;;;1.52;;
43678;SDS011;29279;50.858;4.392;2023-10-19T02:43:44;18.17;;;2.45;;
43678;SDS011;29279;50.858;4.392;2023-10-19T02:46:12;8.45;;;1.67;;
43678;SDS011;29279;50.858;4.392;2023-10-19T02:48:39;16.90;;;2.45;;
43678;SDS011;29279;50.858;4.392;2023-10-19T02:51:10;8.77;;;1.90;;
43678;SDS011;29279;50.858;4.392;2023-10-19T02:53:37;6.35;;;1.83;;
43678;SDS011;29279;50.858;4.392;2023-10-19T02:56:11;9.48;;;2.38;;
43678;SDS011;29279;50.858;4.392;2023-10-19T02:58:41;7.38;;;1.90;;
43678;SDS011;29279;50.858;4.392;2023-10-19T03:01:18;11.18;;;2.30;;
43678;SDS011;29279;50.858;4.392;2023-10-19T03:03:50;11.38;;;2.10;;
43678;SDS011;29279;50.858;4.392;2023-10-19T03:06:18;9.48;;;1.73;;
43678;SDS011;29279;50.858;4.392;2023-10-19T03:08:47;14.93;;;2.55;;
43678;SDS011;29279;50.858;4.392;2023-10-19T03:11:23;9.68;;;2.15;;
43678;SDS011;29279;50.858;4.392;2023-10-19T03:13:49;11.60;;;2.45;;
43678;SDS011;29279;50.858;4.392;2023-10-19T03:16:16;17.58;;;2.05;;
43678;SDS011;29279;50.858;4.392;2023-10-19T03:18:45;13.35;;;2.13;;
43678;SDS011;29279;50.858;4.392;2023-10-19T03:21:11;14.82;;;2.35;;
43678;SDS011;29279;50.858;4.392;2023-10-19T03:23:37;9.00;;;1.80;;
43678;SDS011;29279;50.858;4.392;2023-10-19T03:26:03;15.18;;;2.10;;
43678;SDS011;29279;50.858;4.392;2023-10-19T03:28:49;11.27;;;2.25;;
43678;SDS011;29279;50.858;4.392;2023-10-19T03:31:32;22.42;;;2.90;;
43678;SDS011;29279;50.858;4.392;2023-10-19T03:33:58;10.55;;;2.28;;
43678;SDS011;29279;50.858;4.392;2023-10-19T03:36:24;12.68;;;2.35;;
43678;SDS011;29279;50.858;4.392;2023-10-19T03:38:51;11.50;;;2.00;;
43678;SDS011;29279;50.858;4.392;2023-10-19T03:41:18;14.05;;;1.83;;
43678;SDS011;29279;50.858;4.392;2023-10-19T03:43:54;13.10;;;2.35;;
43678;SDS011;29279;50.858;4.392;2023-10-19T03:46:22;19.15;;;2.13;;
43678;SDS011;29279;50.858;4.392;2023-10-19T03:48:56;13.25;;;3.42;;
43678;SDS011;29279;50.858;4.392;2023-10-19T03:51:44;13.30;;;1.73;;
43678;SDS011;29279;50.858;4.392;2023-10-19T03:54:26;11.43;;;2.22;;
43678;SDS011;29279;50.858;4.392;2023-10-19T03:56:53;13.80;;;2.25;;
43678;SDS011;29279;50.858;4.392;2023-10-19T03:59:20;17.17;;;3.03;;
43678;SDS011;29279;50.858;4.392;2023-10-19T04:01:46;11.98;;;2.13;;
43678;SDS011;29279;50.858;4.392;2023-10-19T04:04:13;13.77;;;2.67;;
43678;SDS011;29279;50.858;4.392;2023-10-19T04:06:42;15.45;;;2.10;;
43678;SDS011;29279;50.858;4.392;2023-10-19T04:09:14;12.50;;;2.45;;
43678;SDS011;29279;50.858;4.392;2023-10-19T04:11:42;11.00;;;2.30;;
43678;SDS011;29279;50.858;4.392;2023-10-19T04:14:15;14.68;;;2.38;;
43678;SDS011;29279;50.858;4.392;2023-10-19T04:16:41;9.45;;;2.00;;
43678;SDS011;29279;50.858;4.392;2023-10-19T04:19:10;19.13;;;2.50;;
43678;SDS011;29279;50.858;4.392;2023-10-19T04:21:37;14.75;;;2.17;;
43678;SDS011;29279;50.858;4.392;2023-10-19T04:24:09;10.93;;;2.25;;
43678;SDS011;29279;50.858;4.392;2023-10-19T04:26:36;12.55;;;2.35;;
43678;SDS011;29279;50.858;4.392;2023-10-19T04:29:02;11.00;;;1.90;;
43678;SDS011;29279;50.858;4.392;2023-10-19T04:31:38;13.50;;;2.05;;
43678;SDS011;29279;50.858;4.392;2023-10-19T04:34:19;22.25;;;2.75;;
43678;SDS011;29279;50.858;4.392;2023-10-19T04:36:49;16.13;;;2.35;;
43678;SDS011;29279;50.858;4.392;2023-10-19T04:39:15;10.73;;;2.42;;
43678;SDS011;29279;50.858;4.392;2023-10-19T04:41:44;17.63;;;2.95;;
43678;SDS011;29279;50.858;4.392;2023-10-19T04:44:10;14.25;;;2.42;;
43678;SDS011;29279;50.858;4.392;2023-10-19T04:46:37;14.32;;;2.65;;
43678;SDS011;29279;50.858;4.392;2023-10-19T04:49:02;14.05;;;2.35;;
43678;SDS011;29279;50.858;4.392;2023-10-19T04:51:29;12.13;;;1.85;;
43678;SDS011;29279;50.858;4.392;2023-10-19T04:53:55;13.95;;;2.28;;
43678;SDS011;29279;50.858;4.392;2023-10-19T04:56:21;15.68;;;2.28;;
43678;SDS011;29279;50.858;4.392;2023-10-19T04:58:47;11.73;;;2.67;;
43678;SDS011;29279;50.858;4.392;2023-10-19T05:01:13;15.05;;;2.25;;
43678;SDS011;29279;50.858;4.392;2023-10-19T05:03:40;9.32;;;2.35;;
43678;SDS011;29279;50.858;4.392;2023-10-19T05:06:06;16.52;;;2.60;;
43678;SDS011;29279;50.858;4.392;2023-10-19T05:08:32;13.80;;;2.40;;
43678;SDS011;29279;50.858;4.392;2023-10-19T05:10:58;13.70;;;2.78;;
43678;SDS011;29279;50.858;4.392;2023-10-19T05:13:25;15.65;;;2.85;;
43678;SDS011;29279;50.858;4.392;2023-10-19T05:15:51;18.10;;;2.53;;
43678;SDS011;29279;50.858;4.392;2023-10-19T05:18:21;26.48;;;2.97;;
43678;SDS011;29279;50.858;4.392;2023-10-19T05:20:47;16.17;;;2.35;;
43678;SDS011;29279;50.858;4.392;2023-10-19T05:23:14;18.58;;;2.97;;
43678;SDS011;29279;50.858;4.392;2023-10-19T05:25:40;12.15;;;2.53;;
43678;SDS011;29279;50.858;4.392;2023-10-19T05:28:06;21.35;;;2.72;;
43678;SDS011;29279;50.858;4.392;2023-10-19T05:30:33;15.60;;;2.95;;
43678;SDS011;29279;50.858;4.392;2023-10-19T05:32:59;13.50;;;2.03;;
43678;SDS011;29279;50.858;4.392;2023-10-19T05:35:26;15.05;;;2.50;;
43678;SDS011;29279;50.858;4.392;2023-10-19T05:37:53;15.15;;;2.72;;
43678;SDS011;29279;50.858;4.392;2023-10-19T05:40:21;12.55;;;1.98;;
43678;SDS011;29279;50.858;4.392;2023-10-19T05:42:48;15.23;;;2.35;;
43678;SDS011;29279;50.858;4.392;2023-10-19T05:45:14;13.23;;;2.13;;
43678;SDS011;29279;50.858;4.392;2023-10-19T05:47:43;13.35;;;2.47;;
43678;SDS011;29279;50.858;4.392;2023-10-19T05:50:09;16.90;;;2.92;;
43678;SDS011;29279;50.858;4.392;2023-10-19T05:52:44;15.07;;;2.80;;
43678;SDS011;29279;50.858;4.392;2023-10-19T05:55:10;14.45;;;2.70;;
43678;SDS011;29279;50.858;4.392;2023-10-19T05:57:37;20.98;;;3.72;;
43678;SDS011;29279;50.858;4.392;2023-10-19T06:00:06;19.58;;;3.13;;
43678;SDS011;29279;50.858;4.392;2023-10-19T06:02:38;13.80;;;2.75;;
43678;SDS011;29279;50.858;4.392;2023-10-19T06:05:06;14.55;;;2.38;;
43678;SDS011;29279;50.858;4.392;2023-10-19T06:07:32;17.77;;;2.83;;
43678;SDS011;29279;50.858;4.392;2023-10-19T06:09:57;16.15;;;2.55;;
43678;SDS011;29279;50.858;4.392;2023-10-19T06:12:25;16.25;;;2.40;;
43678;SDS011;29279;50.858;4.392;2023-10-19T06:14:51;22.17;;;3.25;;
43678;SDS011;29279;50.858;4.392;2023-10-19T06:17:17;19.77;;;2.45;;
43678;SDS011;29279;50.858;4.392;2023-10-19T06:19:44;15.50;;;2.38;;
43678;SDS011;29279;50.858;4.392;2023-10-19T06:22:11;22.25;;;3.25;;
43678;SDS011;29279;50.858;4.392;2023-10-19T06:24:37;19.80;;;3.47;;
43678;SDS011;29279;50.858;4.392;2023-10-19T06:27:03;13.18;;;2.63;;
43678;SDS011;29279;50.858;4.392;2023-10-19T06:29:29;15.70;;;2.58;;
43678;SDS011;29279;50.858;4.392;2023-10-19T06:31:54;20.25;;;3.15;;
43678;SDS011;29279;50.858;4.392;2023-10-19T06:34:20;11.82;;;2.47;;
43678;SDS011;29279;50.858;4.392;2023-10-19T06:36:46;15.23;;;2.92;;
43678;SDS011;29279;50.858;4.392;2023-10-19T06:39:11;18.23;;;3.47;;
43678;SDS011;29279;50.858;4.392;2023-10-19T06:41:38;13.98;;;2.47;;
43678;SDS011;29279;50.858;4.392;2023-10-19T06:44:04;19.42;;;3.00;;
43678;SDS011;29279;50.858;4.392;2023-10-19T06:46:30;16.23;;;2.83;;
43678;SDS011;29279;50.858;4.392;2023-10-19T06:48:56;22.52;;;3.15;;
43678;SDS011;29279;50.858;4.392;2023-10-19T06:51:25;19.33;;;2.90;;
43678;SDS011;29279;50.858;4.392;2023-10-19T06:53:52;14.35;;;2.78;;
43678;SDS011;29279;50.858;4.392;2023-10-19T06:56:17;19.33;;;3.15;;
43678;SDS011;29279;50.858;4.392;2023-10-19T06:58:43;27.00;;;3.35;;
43678;SDS011;29279;50.858;4.392;2023-10-19T07:01:09;18.98;;;3.63;;
43678;SDS011;29279;50.858;4.392;2023-10-19T07:03:36;26.48;;;3.45;;
43678;SDS011;29279;50.858;4.392;2023-10-19T07:06:01;16.08;;;2.45;;
43678;SDS011;29279;50.858;4.392;2023-10-19T07:08:28;15.15;;;2.58;;
43678;SDS011;29279;50.858;4.392;2023-10-19T07:10:55;19.30;;;3.28;;
43678;SDS011;29279;50.858;4.392;2023-10-19T07:13:20;25.23;;;2.95;;
43678;SDS011;29279;50.858;4.392;2023-10-19T07:15:47;18.90;;;3.30;;
43678;SDS011;29279;50.858;4.392;2023-10-19T07:18:16;18.10;;;3.25;;
43678;SDS011;29279;50.858;4.392;2023-10-19T07:20:42;21.30;;;2.90;;
43678;SDS011;29279;50.858;4.392;2023-10-19T07:23:08;14.43;;;2.78;;
43678;SDS011;29279;50.858;4.392;2023-10-19T07:25:53;24.13;;;3.65;;
43678;SDS011;29279;50.858;4.392;2023-10-19T07:28:25;19.33;;;4.05;;
43678;SDS011;29279;50.858;4.392;2023-10-19T07:30:51;19.33;;;2.83;;
43678;SDS011;29279;50.858;4.392;2023-10-19T07:33:17;22.45;;;2.90;;
43678;SDS011;29279;50.858;4.392;2023-10-19T07:35:50;14.98;;;2.72;;
43678;SDS011;29279;50.858;4.392;2023-10-19T07:38:19;25.05;;;3.78;;
43678;SDS011;29279;50.858;4.392;2023-10-19T07:40:49;23.40;;;3.67;;
43678;SDS011;29279;50.858;4.392;2023-10-19T07:43:17;25.30;;;3.17;;
43678;SDS011;29279;50.858;4.392;2023-10-19T07:45:45;25.30;;;3.58;;
43678;SDS011;29279;50.858;4.392;2023-10-19T07:48:12;28.17;;;3.75;;
43678;SDS011;29279;50.858;4.392;2023-10-19T07:50:39;17.98;;;4.25;;
43678;SDS011;29279;50.858;4.392;2023-10-19T07:53:08;20.92;;;3.33;;
43678;SDS011;29279;50.858;4.392;2023-10-19T07:55:37;20.65;;;3.92;;
43678;SDS011;29279;50.858;4.392;2023-10-19T07:58:04;17.00;;;2.80;;
43678;SDS011;29279;50.858;4.392;2023-10-19T08:00:32;17.38;;;2.88;;
43678;SDS011;29279;50.858;4.392;2023-10-19T08:03:00;19.60;;;3.60;;
43678;SDS011;29279;50.858;4.392;2023-10-19T08:05:27;20.30;;;2.88;;
43678;SDS011;29279;50.858;4.392;2023-10-19T08:07:53;20.20;;;3.28;;
43678;SDS011;29279;50.858;4.392;2023-10-19T08:10:19;23.17;;;3.10;;
43678;SDS011;29279;50.858;4.392;2023-10-19T08:12:46;21.08;;;2.80;;
43678;SDS011;29279;50.858;4.392;2023-10-19T08:15:13;16.27;;;2.92;;
43678;SDS011;29279;50.858;4.392;2023-10-19T08:17:43;24.17;;;3.58;;
43678;SDS011;29279;50.858;4.392;2023-10-19T08:20:12;18.92;;;4.53;;
43678;SDS011;29279;50.858;4.392;2023-10-19T08:22:43;20.88;;;4.38;;
43678;SDS011;29279;50.858;4.392;2023-10-19T08:25:11;27.70;;;9.70;;
43678;SDS011;29279;50.858;4.392;2023-10-19T08:27:39;19.48;;;3.38;;
43678;SDS011;29279;50.858;4.392;2023-10-19T08:30:10;21.98;;;4.70;;
43678;SDS011;29279;50.858;4.392;2023-10-19T08:32:38;14.45;;;4.00;;
43678;SDS011;29279;50.858;4.392;2023-10-19T08:35:05;27.98;;;4.32;;
43678;SDS011;29279;50.858;4.392;2023-10-19T08:37:31;25.52;;;3.55;;
43678;SDS011;29279;50.858;4.392;2023-10-19T08:39:57;22.48;;;3.78;;
43678;SDS011;29279;50.858;4.392;2023-10-19T08:42:23;24.10;;;3.80;;
43678;SDS011;29279;50.858;4.392;2023-10-19T08:44:49;24.77;;;3.88;;
43678;SDS011;29279;50.858;4.392;2023-10-19T08:47:15;20.17;;;3.83;;
43678;SDS011;29279;50.858;4.392;2023-10-19T08:49:41;23.08;;;3.95;;
43678;SDS011;29279;50.858;4.392;2023-10-19T08:52:07;18.35;;;5.30;;
43678;SDS011;29279;50.858;4.392;2023-10-19T08:54:34;16.00;;;3.65;;
43678;SDS011;29279;50.858;4.392;2023-10-19T08:57:00;25.27;;;3.75;;
43678;SDS011;29279;50.858;4.392;2023-10-19T08:59:25;22.23;;;3.80;;
43678;SDS011;29279;50.858;4.392;2023-10-19T09:01:59;23.50;;;3.75;;
43678;SDS011;29279;50.858;4.392;2023-10-19T09:04:26;15.10;;;3.72;;
43678;SDS011;29279;50.858;4.392;2023-10-19T09:06:55;26.90;;;4.20;;
43678;SDS011;29279;50.858;4.392;2023-10-19T09:09:21;21.15;;;3.30;;
43678;SDS011;29279;50.858;4.392;2023-10-19T09:11:50;24.15;;;4.00;;
43678;SDS011;29279;50.858;4.392;2023-10-19T09:14:32;23.58;;;3.55;;
43678;SDS011;29279;50.858;4.392;2023-10-19T09:16:59;18.45;;;3.45;;
43678;SDS011;29279;50.858;4.392;2023-10-19T09:19:35;17.42;;;3.55;;
43678;SDS011;29279;50.858;4.392;2023-10-19T09:22:02;30.98;;;4.28;;
43678;SDS011;29279;50.858;4.392;2023-10-19T09:24:47;25.10;;;3.78;;
43678;SDS011;29279;50.858;4.392;2023-10-19T09:27:16;26.10;;;3.70;;
43678;SDS011;29279;50.858;4.392;2023-10-19T09:29:42;23.00;;;4.05;;
43678;SDS011;29279;50.858;4.392;2023-10-19T09:32:08;25.30;;;4.18;;
43678;SDS011;29279;50.858;4.392;2023-10-19T09:34:35;21.70;;;3.22;;
43678;SDS011;29279;50.858;4.392;2023-10-19T09:37:01;32.90;;;4.57;;
43678;SDS011;29279;50.858;4.392;2023-10-19T09:39:29;23.42;;;3.78;;
43678;SDS011;29279;50.858;4.392;2023-10-19T09:42:08;27.05;;;3.63;;
43678;SDS011;29279;50.858;4.392;2023-10-19T09:44:45;22.45;;;3.67;;
43678;SDS011;29279;50.858;4.392;2023-10-19T09:47:26;23.33;;;3.80;;
43678;SDS011;29279;50.858;4.392;2023-10-19T09:49:56;21.77;;;3.90;;
43678;SDS011;29279;50.858;4.392;2023-10-19T09:52:22;23.45;;;3.22;;
43678;SDS011;29279;50.858;4.392;2023-10-19T09:57:20;25.02;;;4.30;;
43678;SDS011;29279;50.858;4.392;2023-10-19T10:00:00;28.45;;;4.80;;
43678;SDS011;29279;50.858;4.392;2023-10-19T10:02:44;21.50;;;3.88;;
43678;SDS011;29279;50.858;4.392;2023-10-19T10:15:56;17.80;;;3.53;;
43678;SDS011;29279;50.858;4.392;2023-10-19T10:18:26;27.95;;;3.95;;
43678;SDS011;29279;50.858;4.392;2023-10-19T10:23:33;18.60;;;3.38;;
43678;SDS011;29279;50.858;4.392;2023-10-19T10:26:06;24.92;;;4.63;;
43678;SDS011;29279;50.858;4.392;2023-10-19T10:28:33;27.30;;;4.25;;
43678;SDS011;29279;50.858;4.392;2023-10-19T10:36:15;23.20;;;4.15;;
43678;SDS011;29279;50.858;4.392;2023-10-19T10:38:45;20.95;;;4.05;;
43678;SDS011;29279;50.858;4.392;2023-10-19T10:41:11;16.00;;;3.50;;
43678;SDS011;29279;50.858;4.392;2023-10-19T10:43:54;22.63;;;5.72;;
43678;SDS011;29279;50.858;4.392;2023-10-19T10:46:21;17.50;;;3.92;;
43678;SDS011;29279;50.858;4.392;2023-10-19T10:48:52;17.02;;;3.65;;
43678;SDS011;29279;50.858;4.392;2023-10-19T10:51:22;23.38;;;4.22;;
43678;SDS011;29279;50.858;4.392;2023-10-19T10:53:53;18.30;;;3.97;;
43678;SDS011;29279;50.858;4.392;2023-10-19T10:56:23;24.75;;;4.25;;
43678;SDS011;29279;50.858;4.392;2023-10-19T10:58:49;14.70;;;3.92;;
43678;SDS011;29279;50.858;4.392;2023-10-19T11:01:24;15.85;;;3.15;;
43678;SDS011;29279;50.858;4.392;2023-10-19T11:04:05;16.98;;;3.47;;
43678;SDS011;29279;50.858;4.392;2023-10-19T11:06:32;19.98;;;3.55;;
43678;SDS011;29279;50.858;4.392;2023-10-19T11:08:58;16.10;;;3.75;;
43678;SDS011;29279;50.858;4.392;2023-10-19T11:11:37;17.42;;;3.28;;
43678;SDS011;29279;50.858;4.392;2023-10-19T11:14:10;18.30;;;3.30;;
43678;SDS011;29279;50.858;4.392;2023-10-19T11:16:36;17.23;;;2.78;;
43678;SDS011;29279;50.858;4.392;2023-10-19T11:19:04;20.60;;;2.95;;
43678;SDS011;29279;50.858;4.392;2023-10-19T11:21:29;25.17;;;3.88;;
43678;SDS011;29279;50.858;4.392;2023-10-19T11:23:55;17.73;;;3.42;;
43678;SDS011;29279;50.858;4.392;2023-10-19T11:26:22;14.95;;;2.92;;
43678;SDS011;29279;50.858;4.392;2023-10-19T11:29:02;15.43;;;2.85;;
43678;SDS011;29279;50.858;4.392;2023-10-19T11:31:34;13.32;;;3.40;;
43678;SDS011;29279;50.858;4.392;2023-10-19T11:34:04;23.38;;;3.95;;
43678;SDS011;29279;50.858;4.392;2023-10-19T11:36:30;17.60;;;3.35;;
43678;SDS011;29279;50.858;4.392;2023-10-19T11:38:56;19.15;;;3.40;;
43678;SDS011;29279;50.858;4.392;2023-10-19T11:41:22;16.58;;;3.10;;
43678;SDS011;29279;50.858;4.392;2023-10-19T11:43:48;14.13;;;3.03;;
43678;SDS011;29279;50.858;4.392;2023-10-19T11:46:15;17.15;;;2.88;;
43678;SDS011;29279;50.858;4.392;2023-10-19T11:48:43;15.10;;;2.63;;
43678;SDS011;29279;50.858;4.392;2023-10-19T11:51:09;8.43;;;2.53;;
43678;SDS011;29279;50.858;4.392;2023-10-19T11:53:36;10.05;;;2.55;;
43678;SDS011;29279;50.858;4.392;2023-10-19T11:56:03;13.13;;;2.70;;
43678;SDS011;29279;50.858;4.392;2023-10-19T11:58:31;15.32;;;2.17;;
43678;SDS011;29279;50.858;4.392;2023-10-19T12:01:03;17.88;;;2.80;;
43678;SDS011;29279;50.858;4.392;2023-10-19T12:03:39;9.40;;;2.33;;
43678;SDS011;29279;50.858;4.392;2023-10-19T12:06:09;11.27;;;2.42;;
43678;SDS011;29279;50.858;4.392;2023-10-19T12:08:36;14.75;;;2.60;;
43678;SDS011;29279;50.858;4.392;2023-10-19T12:11:03;7.40;;;1.90;;
43678;SDS011;29279;50.858;4.392;2023-10-19T12:13:29;12.15;;;1.88;;
43678;SDS011;29279;50.858;4.392;2023-10-19T12:15:56;8.55;;;1.50;;
43678;SDS011;29279;50.858;4.392;2023-10-19T12:18:22;8.95;;;1.75;;
43678;SDS011;29279;50.858;4.392;2023-10-19T12:20:50;6.50;;;2.10;;
43678;SDS011;29279;50.858;4.392;2023-10-19T12:23:21;6.82;;;1.75;;
43678;SDS011;29279;50.858;4.392;2023-10-19T12:25:48;8.15;;;1.90;;
43678;SDS011;29279;50.858;4.392;2023-10-19T12:28:14;10.57;;;2.40;;
43678;SDS011;29279;50.858;4.392;2023-10-19T12:30:40;5.20;;;1.70;;
43678;SDS011;29279;50.858;4.392;2023-10-19T12:33:06;9.77;;;2.42;;
43678;SDS011;29279;50.858;4.392;2023-10-19T12:35:37;11.27;;;2.53;;
43678;SDS011;29279;50.858;4.392;2023-10-19T12:38:22;12.02;;;1.88;;
43678;SDS011;29279;50.858;4.392;2023-10-19T12:40:49;9.05;;;1.83;;
43678;SDS011;29279;50.858;4.392;2023-10-19T12:43:19;7.47;;;1.98;;
43678;SDS011;29279;50.858;4.392;2023-10-19T12:45:47;9.32;;;1.73;;
43678;SDS011;29279;50.858;4.392;2023-10-19T12:48:18;4.70;;;1.30;;
43678;SDS011;29279;50.858;4.392;2023-10-19T12:50:45;8.98;;;1.70;;
43678;SDS011;29279;50.858;4.392;2023-10-19T12:53:12;7.70;;;1.40;;
43678;SDS011;29279;50.858;4.392;2023-10-19T12:55:39;4.20;;;1.60;;
43678;SDS011;29279;50.858;4.392;2023-10-19T12:58:05;4.28;;;1.45;;
43678;SDS011;29279;50.858;4.392;2023-10-19T13:00:34;4.60;;;1.45;;
43678;SDS011;29279;50.858;4.392;2023-10-19T13:03:04;8.80;;;1.67;;
43678;SDS011;29279;50.858;4.392;2023-10-19T13:05:36;4.38;;;1.35;;
43678;SDS011;29279;50.858;4.392;2023-10-19T13:08:07;5.10;;;1.20;;
43678;SDS011;29279;50.858;4.392;2023-10-19T13:10:34;3.05;;;1.20;;
43678;SDS011;29279;50.858;4.392;2023-10-19T13:13:02;8.32;;;1.33;;
43678;SDS011;29279;50.858;4.392;2023-10-19T13:15:31;4.75;;;1.45;;
43678;SDS011;29279;50.858;4.392;2023-10-19T13:17:57;2.97;;;1.30;;
43678;SDS011;29279;50.858;4.392;2023-10-19T13:20:26;3.88;;;1.05;;
43678;SDS011;29279;50.858;4.392;2023-10-19T13:22:53;5.38;;;1.45;;
43678;SDS011;29279;50.858;4.392;2023-10-19T13:25:21;3.20;;;1.08;;
43678;SDS011;29279;50.858;4.392;2023-10-19T13:28:04;6.05;;;1.23;;
43678;SDS011;29279;50.858;4.392;2023-10-19T13:30:35;3.20;;;0.93;;
43678;SDS011;29279;50.858;4.392;2023-10-19T13:33:07;2.00;;;0.77;;
43678;SDS011;29279;50.858;4.392;2023-10-19T13:35:35;2.17;;;0.77;;
43678;SDS011;29279;50.858;4.392;2023-10-19T13:38:02;4.90;;;1.20;;
43678;SDS011;29279;50.858;4.392;2023-10-19T13:40:29;2.03;;;0.82;;
43678;SDS011;29279;50.858;4.392;2023-10-19T13:42:55;3.88;;;1.40;;
43678;SDS011;29279;50.858;4.392;2023-10-19T13:45:22;3.13;;;1.13;;
43678;SDS011;29279;50.858;4.392;2023-10-19T13:47:48;3.10;;;1.20;;
43678;SDS011;29279;50.858;4.392;2023-10-19T13:50:14;2.33;;;0.80;;
43678;SDS011;29279;50.858;4.392;2023-10-19T13:52:40;4.82;;;1.38;;
43678;SDS011;29279;50.858;4.392;2023-10-19T13:55:06;3.42;;;1.27;;
43678;SDS011;29279;50.858;4.392;2023-10-19T13:57:33;2.83;;;0.95;;
43678;SDS011;29279;50.858;4.392;2023-10-19T13:59:59;5.28;;;1.20;;
43678;SDS011;29279;50.858;4.392;2023-10-19T14:02:26;2.40;;;1.10;;
43678;SDS011;29279;50.858;4.392;2023-10-19T14:04:51;5.32;;;1.10;;
43678;SDS011;29279;50.858;4.392;2023-10-19T14:07:18;2.63;;;1.33;;
43678;SDS011;29279;50.858;4.392;2023-10-19T14:09:45;1.73;;;0.70;;
43678;SDS011;29279;50.858;4.392;2023-10-19T14:12:10;4.82;;;1.10;;
43678;SDS011;29279;50.858;4.392;2023-10-19T14:14:36;2.72;;;1.00;;
43678;SDS011;29279;50.858;4.392;2023-10-19T14:17:02;3.85;;;1.20;;
43678;SDS011;29279;50.858;4.392;2023-10-19T14:19:27;1.75;;;0.98;;
43678;SDS011;29279;50.858;4.392;2023-10-19T14:21:53;3.30;;;0.90;;
43678;SDS011;29279;50.858;4.392;2023-10-19T14:24:19;3.13;;;1.17;;
43678;SDS011;29279;50.858;4.392;2023-10-19T14:26:45;2.70;;;0.80;;
43678;SDS011;29279;50.858;4.392;2023-10-19T14:29:12;4.57;;;0.90;;
43678;SDS011;29279;50.858;4.392;2023-10-19T14:31:38;6.53;;;0.80;;
43678;SDS011;29279;50.858;4.392;2023-10-19T14:34:05;5.80;;;1.05;;
43678;SDS011;29279;50.858;4.392;2023-10-19T14:36:33;4.07;;;0.93;;
43678;SDS011;29279;50.858;4.392;2023-10-19T14:38:58;5.80;;;0.85;;
43678;SDS011;29279;50.858;4.392;2023-10-19T14:41:24;2.60;;;0.63;;
43678;SDS011;29279;50.858;4.392;2023-10-19T14:43:50;2.95;;;1.00;;
43678;SDS011;29279;50.858;4.392;2023-10-19T14:46:15;2.67;;;0.98;;
43678;SDS011;29279;50.858;4.392;2023-10-19T14:48:41;2.85;;;0.98;;
43678;SDS011;29279;50.858;4.392;2023-10-19T14:51:07;4.60;;;1.23;;
43678;SDS011;29279;50.858;4.392;2023-10-19T14:53:33;2.97;;;1.25;;
43678;SDS011;29279;50.858;4.392;2023-10-19T14:55:59;2.55;;;1.10;;
43678;SDS011;29279;50.858;4.392;2023-10-19T14:58:26;9.88;;;1.50;;
43678;SDS011;29279;50.858;4.392;2023-10-19T15:00:51;4.82;;;1.40;;
43678;SDS011;29279;50.858;4.392;2023-10-19T15:03:20;3.60;;;1.27;;
43678;SDS011;29279;50.858;4.392;2023-10-19T15:05:51;7.07;;;1.88;;
43678;SDS011;29279;50.858;4.392;2023-10-19T15:08:18;3.42;;;1.20;;
43678;SDS011;29279;50.858;4.392;2023-10-19T15:10:44;6.07;;;0.82;;
43678;SDS011;29279;50.858;4.392;2023-10-19T15:13:10;5.25;;;1.00;;